Time;durP1;ratioP1;P1;durP2;ratioP2;P2;SDS_P1;SDS_P2;PMS_P1;PMS_P2;Temp;Humidity;BMP_temperature;BMP_pressure;BME280_temperature;BME280_humidity;BME280_pressure;Samples;Min_cycle;Max_cycle;Signal;HPM_P1;HPM_P2
2022/12/23 00:00:37;;;;;;;112.15;58.30;;;;;;;3.80;56.38;94791.53;5031187;28;20029;-76
2022/12/23 00:03:02;;;;;;;123.90;65.75;;;;;;;3.75;56.38;94795.44;5048367;28;20036;-75
2022/12/23 00:05:28;;;;;;;135.57;69.32;;;;;;;3.73;56.48;94793.13;5047797;28;20473;-77
2022/12/23 00:07:54;;;;;;;170.40;81.30;;;;;;;3.73;56.64;94790.41;5014791;28;20029;-76
2022/12/23 00:10:19;;;;;;;197.25;96.03;;;;;;;3.68;56.81;94798.19;5048283;28;20028;-75
2022/12/23 00:15:28;;;;;;;;;;;;;;;3.67;56.57;94796.63;5048509;28;20510;-76
2022/12/23 00:17:54;;;;;;;206.15;95.30;;;;;;;3.67;56.62;94808.31;5049080;28;19921;-75
2022/12/23 00:20:19;;;;;;;211.05;100.82;;;;;;;3.66;56.93;94800.53;5047216;28;20135;-76
2022/12/23 00:25:41;;;;;;;;;;;;;;;3.62;57.28;94805.22;5033165;28;20116;-75
2022/12/23 00:28:12;;;;;;;212.88;94.65;;;;;;;3.53;57.23;94804.84;5047699;28;19978;-76
2022/12/23 00:30:47;;;;;;;223.18;105.78;;;;;;;3.47;57.21;94807.19;5046988;28;20027;-76
2022/12/23 00:33:13;;;;;;;209.27;101.20;;;;;;;3.53;57.28;94802.91;5030949;28;20396;-75
2022/12/23 00:35:39;;;;;;;208.50;96.85;;;;;;;3.53;57.27;94808.34;5031294;28;20036;-76
2022/12/23 00:38:04;;;;;;;204.82;93.13;;;;;;;3.54;57.20;94809.13;5047774;28;20029;-75
2022/12/23 00:43:15;;;;;;;119.35;62.85;;;;;;;3.58;57.24;94797.06;5046988;28;20036;-76
2022/12/23 00:45:40;;;;;;;141.98;71.97;;;;;;;3.57;56.54;94789.31;5046958;28;20423;-76
2022/12/23 00:50:49;;;;;;;;;;;;;;;3.52;57.20;94806.81;5047088;28;20044;-76
2022/12/23 00:53:15;;;;;;;127.85;63.20;;;;;;;3.46;57.26;94808.38;5047459;28;19913;-76
2022/12/23 00:55:40;;;;;;;122.18;61.58;;;;;;;3.47;57.53;94810.69;5047178;28;20025;-76
2022/12/23 00:58:06;;;;;;;129.00;67.72;;;;;;;3.32;57.35;94798.31;5029942;28;20028;-77
2022/12/23 01:06:00;;;;;;;125.60;65.90;;;;;;;3.35;58.09;94805.69;5047722;28;19923;-76
2022/12/23 01:08:26;;;;;;;148.55;74.28;;;;;;;3.32;57.82;94800.25;5012825;28;20116;-75
2022/12/23 01:10:51;;;;;;;152.35;77.57;;;;;;;3.30;58.01;94791.75;5030455;28;20021;-76
2022/12/23 01:13:16;;;;;;;134.85;68.03;;;;;;;3.32;57.93;94801.03;5046325;28;20112;-77
2022/12/23 01:15:42;;;;;;;133.27;65.70;;;;;;;3.39;57.75;94797.53;5046631;28;20028;-76
2022/12/23 01:18:07;;;;;;;119.90;60.85;;;;;;;3.46;57.64;94783.91;5013363;28;20025;-76
2022/12/23 01:20:33;;;;;;;126.00;62.05;;;;;;;3.46;57.81;94794.78;5047570;28;20017;-76
2022/12/23 01:22:59;;;;;;;126.63;62.72;;;;;;;3.49;57.98;94799.41;5046721;28;20025;-76
2022/12/23 01:25:24;;;;;;;117.45;62.97;;;;;;;3.49;57.81;94787.78;5029053;28;20025;-75
2022/12/23 01:27:50;;;;;;;117.00;59.58;;;;;;;3.53;57.91;94802.13;5030169;28;20029;-75
2022/12/23 01:30:15;;;;;;;121.30;59.10;;;;;;;3.51;57.82;94805.25;5047174;28;20074;-76
2022/12/23 01:32:41;;;;;;;108.20;60.90;;;;;;;3.53;57.94;94802.91;5046130;28;20131;-76
2022/12/23 01:35:07;;;;;;;113.75;62.38;;;;;;;3.60;57.94;94799.38;5046995;28;20087;-76
2022/12/23 01:37:33;;;;;;;118.68;60.25;;;;;;;3.60;57.79;94789.28;5047478;28;20021;-76
2022/12/23 01:39:58;;;;;;;116.55;65.25;;;;;;;3.63;57.94;94785.78;5046388;28;20028;-76
2022/12/23 01:42:42;;;;;;;129.80;67.32;;;;;;;3.55;57.93;94780.75;5045658;28;20028;-75
2022/12/23 01:45:13;;;;;;;118.90;62.63;;;;;;;3.62;57.62;94778.03;5047013;28;20017;-76
2022/12/23 01:47:41;;;;;;;110.30;61.10;;;;;;;3.65;57.55;94771.78;5045249;28;20036;-76
2022/12/23 01:50:24;;;;;;;105.35;57.63;;;;;;;3.64;57.79;94756.66;5046153;28;20029;-77
2022/12/23 01:52:56;;;;;;;93.40;53.90;;;;;;;3.61;57.80;94754.72;5029260;28;20021;-75
2022/12/23 01:55:23;;;;;;;89.45;52.30;;;;;;;3.65;57.60;94758.19;5045260;28;20029;-76
2022/12/23 01:57:49;;;;;;;92.80;54.28;;;;;;;3.67;57.46;94758.56;5029710;28;20063;-76
2022/12/23 02:05:43;;;;;;;;;;;;;;;3.78;57.32;94759.28;5050830;28;20072;-76
2022/12/23 02:11:05;;;;;;;112.13;60.28;;;;;;;3.71;57.18;94748.44;5047550;28;20075;-75
2022/12/23 02:16:45;;;;;;;110.10;58.67;;;;;;;3.72;57.56;94733.69;5045517;28;20510;-76
2022/12/23 02:19:17;;;;;;;94.55;53.35;;;;;;;3.73;57.64;94746.91;5046373;28;20029;-76
2022/12/23 02:22:04;;;;;;;109.85;60.40;;;;;;;3.67;57.68;94743.06;5027931;28;20021;-75
2022/12/23 02:24:53;;;;;;;119.38;63.22;;;;;;;3.65;57.81;94747.31;5045845;28;20120;-77
2022/12/23 02:27:29;;;;;;;131.98;67.43;;;;;;;3.66;57.72;94751.59;5046871;28;20083;-77
2022/12/23 02:30:33;;;;;;;111.88;60.83;;;;;;;3.67;57.61;94747.69;5030491;28;20021;-76
2022/12/23 02:33:20;;;;;;;106.13;56.58;;;;;;;3.61;57.32;94741.91;5045706;28;20028;-74
2022/12/23 02:36:14;;;;;;;103.68;53.08;;;;;;;3.60;57.09;94715.13;5028729;28;20029;-76
2022/12/23 02:39:02;;;;;;;102.25;52.55;;;;;;;3.47;57.03;94712.09;5032070;28;20047;-77
2022/12/23 02:41:36;;;;;;;100.20;51.70;;;;;;;3.66;57.15;94743.44;5045085;28;20033;-75
2022/12/23 02:44:06;;;;;;;104.20;55.17;;;;;;;3.60;57.31;94751.22;5044563;28;20029;-75
2022/12/23 02:46:32;;;;;;;102.85;54.92;;;;;;;3.55;57.00;94750.84;5044903;28;20079;-76
2022/12/23 02:49:08;;;;;;;106.28;55.95;;;;;;;3.56;57.29;94741.56;5028262;28;20033;-75
2022/12/23 02:51:39;;;;;;;110.10;56.35;;;;;;;3.53;57.20;94740.41;5027939;28;20082;-77
2022/12/23 02:54:08;;;;;;;110.07;56.72;;;;;;;3.58;57.29;94734.53;5029329;28;20060;-77
2022/12/23 02:56:34;;;;;;;108.47;56.03;;;;;;;3.50;57.15;94745.84;5028113;28;20032;-76
2022/12/23 02:59:03;;;;;;;112.00;59.33;;;;;;;3.53;57.23;94748.53;5028572;28;20021;-76
2022/12/23 03:01:29;;;;;;;122.60;61.33;;;;;;;3.47;57.28;94759.06;5044204;28;20047;-76
2022/12/23 03:03:55;;;;;;;121.75;59.35;;;;;;;3.51;57.12;94748.19;5027883;28;20037;-76
2022/12/23 03:06:41;;;;;;;103.07;54.85;;;;;;;3.50;57.38;94738.47;5044665;28;20056;-76
2022/12/23 03:09:07;;;;;;;107.68;55.20;;;;;;;3.47;57.17;94736.53;5043709;28;20203;-76
2022/12/23 03:12:07;;;;;;;104.07;55.63;;;;;;;3.46;57.34;94733.06;5028540;28;20174;-76
2022/12/23 03:15:03;;;;;;;94.25;51.85;;;;;;;3.42;57.24;94732.28;5042366;28;20045;-76
2022/12/23 03:17:47;;;;;;;99.38;50.40;;;;;;;3.44;57.40;94737.31;5028407;28;20032;-76
2022/12/23 03:20:45;;;;;;;97.05;50.30;;;;;;;3.43;57.40;94727.63;5046735;28;20036;-77
2022/12/23 03:23:30;;;;;;;100.15;50.50;;;;;;;3.44;57.47;94732.69;5033715;28;20052;-76
2022/12/23 03:26:00;;;;;;;95.10;49.08;;;;;;;3.51;57.45;94733.81;5033551;28;20102;-76
2022/12/23 03:28:41;;;;;;;95.22;48.20;;;;;;;3.53;57.58;94740.41;5049331;28;20039;-75
2022/12/23 03:31:08;;;;;;;97.13;49.90;;;;;;;3.45;57.76;94731.50;5049305;28;20033;-75
2022/12/23 03:33:35;;;;;;;94.90;49.20;;;;;;;3.50;57.72;94738.47;5032196;28;20029;-75
2022/12/23 03:36:05;;;;;;;89.00;48.65;;;;;;;3.57;57.64;94737.66;5031772;28;20052;-76
2022/12/23 03:38:31;;;;;;;97.15;47.95;;;;;;;3.57;57.96;94734.94;5032206;28;20043;-76
2022/12/23 03:41:00;;;;;;;86.90;48.05;;;;;;;3.54;57.75;94727.56;5015788;28;20037;-76
2022/12/23 03:43:33;;;;;;;85.15;47.47;;;;;;;3.60;58.11;94736.84;5031372;28;20495;-75
2022/12/23 03:46:02;;;;;;;87.55;46.70;;;;;;;3.55;57.90;94738.03;5033364;28;20487;-76
2022/12/23 03:48:33;;;;;;;88.30;47.65;;;;;;;3.54;58.10;94739.22;5031380;28;20519;-76
2022/12/23 03:51:01;;;;;;;79.85;46.05;;;;;;;3.54;58.18;94733.00;5048289;28;20021;-76
2022/12/23 03:53:28;;;;;;;78.07;42.83;;;;;;;3.57;57.94;94733.00;5034923;28;20072;-76
2022/12/23 03:56:15;;;;;;;76.97;44.60;;;;;;;3.51;58.06;94728.38;5047849;28;20033;-75
2022/12/23 03:58:43;;;;;;;79.40;43.33;;;;;;;3.57;58.02;94722.13;5034249;28;20048;-77
2022/12/23 04:02:06;;;;;;;76.78;44.05;;;;;;;3.55;58.40;94721.72;5014370;28;20032;-76
2022/12/23 04:04:43;;;;;;;69.22;40.03;;;;;;;3.50;58.64;94733.03;4967502;28;20050;-76
2022/12/23 04:07:16;;;;;;;63.83;37.25;;;;;;;3.53;58.62;94742.34;4952362;28;20563;-75
2022/12/23 04:09:42;;;;;;;83.65;41.90;;;;;;;3.54;58.43;94739.22;5014784;28;20051;-77
2022/12/23 04:12:07;;;;;;;69.40;37.83;;;;;;;3.55;58.44;94732.59;5015188;28;20435;-78
2022/12/23 04:14:33;;;;;;;66.25;37.85;;;;;;;3.53;58.26;94734.19;5030652;28;20017;-75
2022/12/23 04:16:58;;;;;;;65.95;38.90;;;;;;;3.59;58.15;94732.59;5031158;28;20029;-77
2022/12/23 04:19:24;;;;;;;70.75;38.85;;;;;;;3.65;58.15;94736.44;5047632;28;20411;-75
2022/12/23 04:21:49;;;;;;;67.15;37.50;;;;;;;3.70;58.06;94738.75;5047075;28;20056;-75
2022/12/23 04:24:15;;;;;;;64.63;38.40;;;;;;;3.66;58.21;94732.56;5047979;28;20032;-76
2022/12/23 04:26:40;;;;;;;73.45;38.28;;;;;;;3.70;58.26;94738.75;5046896;28;20031;-76
2022/12/23 04:29:05;;;;;;;66.85;38.78;;;;;;;3.67;58.27;94729.47;5048188;28;20469;-76
2022/12/23 04:31:31;;;;;;;70.07;39.13;;;;;;;3.73;58.70;94729.81;5018211;28;20029;-76
2022/12/23 04:33:56;;;;;;;72.50;42.17;;;;;;;3.76;58.72;94733.66;5056112;28;20032;-75
2022/12/23 04:36:22;;;;;;;67.22;38.72;;;;;;;3.88;58.88;94739.41;5031427;28;20025;-76
2022/12/23 04:38:47;;;;;;;68.28;41.45;;;;;;;3.90;58.69;94730.84;5030743;28;20027;-75
2022/12/23 04:41:13;;;;;;;66.97;40.15;;;;;;;3.81;58.32;94746.84;5048884;28;20025;-76
2022/12/23 04:43:38;;;;;;;66.20;38.22;;;;;;;3.80;58.24;94739.88;5030015;28;20186;-76
2022/12/23 04:46:03;;;;;;;67.25;38.35;;;;;;;3.78;58.07;94744.91;5031240;28;20025;-76
2022/12/23 04:48:29;;;;;;;73.40;40.55;;;;;;;3.80;58.53;94731.72;5050386;28;20029;-77
2022/12/23 04:50:54;;;;;;;72.75;39.55;;;;;;;3.82;58.57;94732.84;5048885;28;20021;-76
2022/12/23 04:53:20;;;;;;;73.55;39.92;;;;;;;3.86;58.41;94728.16;5046509;28;20033;-77
2022/12/23 04:55:49;;;;;;;64.35;39.30;;;;;;;3.90;58.68;94742.53;5030367;28;20055;-75
2022/12/23 04:58:15;;;;;;;67.80;39.63;;;;;;;3.95;58.88;94755.69;5046828;28;20031;-75
2022/12/23 05:00:40;;;;;;;72.15;42.33;;;;;;;4.00;58.88;94757.22;5047904;28;20029;-75
2022/12/23 05:03:06;;;;;;;85.75;43.78;;;;;;;3.99;58.95;94755.66;5030369;28;20033;-76
2022/12/23 05:05:31;;;;;;;94.45;47.88;;;;;;;4.05;58.78;94766.91;5029118;28;20048;-76
2022/12/23 05:08:02;;;;;;;92.20;50.15;;;;;;;4.05;58.81;94756.03;5030527;28;20044;-75
2022/12/23 05:10:27;;;;;;;91.43;50.90;;;;;;;4.09;58.52;94762.22;5029888;28;20033;-75
2022/12/23 05:12:53;;;;;;;95.78;51.83;;;;;;;4.11;58.61;94757.91;5046598;28;20036;-76
2022/12/23 05:15:18;;;;;;;99.75;51.13;;;;;;;4.06;58.35;94763.78;5047741;28;20021;-76
2022/12/23 05:17:44;;;;;;;89.18;51.70;;;;;;;4.10;58.19;94766.47;5047649;28;20029;-76
2022/12/23 05:20:09;;;;;;;108.30;58.50;;;;;;;4.06;58.48;94754.84;5029910;28;20021;-76
2022/12/23 05:22:35;;;;;;;110.57;56.85;;;;;;;4.13;58.40;94766.47;5046536;28;20039;-75
2022/12/23 05:25:00;;;;;;;109.57;59.53;;;;;;;4.15;58.23;94768.78;5048325;28;20013;-75
2022/12/23 05:27:25;;;;;;;107.75;56.83;;;;;;;4.18;58.22;94763.31;5046893;28;20029;-76
2022/12/23 05:29:51;;;;;;;92.07;48.83;;;;;;;4.18;58.17;94770.69;5047803;28;20028;-74
2022/12/23 05:32:16;;;;;;;80.20;47.42;;;;;;;4.22;58.31;94777.66;5047015;28;20028;-75
2022/12/23 05:34:42;;;;;;;86.32;46.47;;;;;;;4.19;58.26;94781.19;5047587;28;20029;-75
2022/12/23 05:37:07;;;;;;;87.13;49.53;;;;;;;4.26;58.26;94781.16;5047419;28;20032;-75
2022/12/23 05:39:33;;;;;;;89.63;49.22;;;;;;;4.32;58.25;94778.00;5047311;28;20055;-73
2022/12/23 05:41:58;;;;;;;99.78;54.42;;;;;;;4.34;58.16;94770.19;5046178;28;20025;-76
2022/12/23 05:44:24;;;;;;;101.30;55.70;;;;;;;4.38;57.84;94766.28;5045263;28;20044;-75
2022/12/23 05:46:49;;;;;;;101.50;54.95;;;;;;;4.38;58.04;94765.50;5046489;28;20075;-76
2022/12/23 05:49:15;;;;;;;111.97;56.95;;;;;;;4.35;58.04;94771.75;5028569;28;20068;-75
2022/12/23 05:51:40;;;;;;;108.45;59.47;;;;;;;4.33;58.05;94777.59;5046351;28;20120;-75
2022/12/23 05:54:05;;;;;;;101.88;58.35;;;;;;;4.35;58.17;94775.22;5029047;28;20029;-74
2022/12/23 05:56:31;;;;;;;107.85;58.15;;;;;;;4.39;58.28;94767.06;5046073;28;20033;-75
2022/12/23 05:58:56;;;;;;;112.53;57.67;;;;;;;4.36;58.60;94768.63;5045599;28;20294;-76
2022/12/23 06:01:22;;;;;;;106.45;55.58;;;;;;;4.45;58.21;94766.22;5046315;28;20029;-76
2022/12/23 06:03:47;;;;;;;94.25;53.03;;;;;;;4.45;58.22;94766.22;5045521;28;20028;-76
2022/12/23 06:06:13;;;;;;;88.18;50.58;;;;;;;4.42;57.97;94766.25;5045841;28;20040;-76
2022/12/23 06:08:38;;;;;;;103.35;53.90;;;;;;;4.42;58.12;94766.25;5045862;28;20025;-74
2022/12/23 06:11:05;;;;;;;99.35;54.65;;;;;;;4.45;58.12;94768.94;5044918;28;20416;-76
2022/12/23 06:13:30;;;;;;;96.20;51.83;;;;;;;4.51;57.98;94770.06;5045714;28;20025;-75
2022/12/23 06:15:55;;;;;;;96.88;54.00;;;;;;;4.47;58.03;94763.09;5045169;28;20450;-75
2022/12/23 06:18:21;;;;;;;93.22;53.28;;;;;;;4.56;58.14;94768.09;5046605;28;20017;-77
2022/12/23 06:20:46;;;;;;;95.88;54.95;;;;;;;4.58;58.28;94771.16;5045738;28;20031;-74
2022/12/23 06:23:12;;;;;;;97.70;55.30;;;;;;;4.63;57.88;94768.00;5044417;28;20025;-76
2022/12/23 06:25:38;;;;;;;109.47;57.78;;;;;;;4.65;57.88;94768.41;5047098;28;20111;-76
2022/12/23 06:28:04;;;;;;;115.82;58.78;;;;;;;4.63;57.96;94773.47;5044691;28;20028;-77
2022/12/23 06:30:29;;;;;;;115.15;62.63;;;;;;;4.70;58.04;94782.38;5029223;28;20021;-77
2022/12/23 06:32:55;;;;;;;129.55;74.57;;;;;;;4.69;57.55;94785.47;5046021;28;20457;-77
2022/12/23 06:35:20;;;;;;;145.75;77.82;;;;;;;4.60;57.51;94785.94;5046670;28;20028;-77
2022/12/23 06:37:46;;;;;;;139.45;74.63;;;;;;;4.59;57.23;94780.88;5046214;28;20032;-77
2022/12/23 06:40:11;;;;;;;144.93;73.20;;;;;;;4.55;57.22;94783.66;5048557;28;20032;-76
2022/12/23 06:42:37;;;;;;;130.00;70.90;;;;;;;4.55;57.12;94794.53;5049502;28;20060;-75
2022/12/23 06:45:03;;;;;;;132.63;70.55;;;;;;;4.56;57.34;94795.31;5046112;28;20103;-76
2022/12/23 06:47:28;;;;;;;130.77;68.25;;;;;;;4.57;57.42;94789.47;5045876;28;20049;-79
2022/12/23 06:49:53;;;;;;;129.73;66.57;;;;;;;4.58;57.32;94792.94;5046239;28;20021;-77
2022/12/23 06:52:19;;;;;;;119.50;67.35;;;;;;;4.52;57.54;94790.66;5045660;28;20380;-76
2022/12/23 06:54:44;;;;;;;126.30;67.40;;;;;;;4.51;57.38;94775.50;5047767;28;20465;-76
2022/12/23 06:57:10;;;;;;;116.90;64.55;;;;;;;4.56;57.00;94778.97;5046777;28;20028;-76
2022/12/23 06:59:35;;;;;;;118.25;66.47;;;;;;;4.61;56.91;94778.53;5046747;28;20025;-76
2022/12/23 07:02:01;;;;;;;125.38;67.95;;;;;;;4.61;57.04;94790.22;5044956;28;20053;-76
2022/12/23 07:04:26;;;;;;;119.07;65.47;;;;;;;4.63;57.18;94801.47;5045164;28;20112;-76
2022/12/23 07:06:52;;;;;;;122.82;66.40;;;;;;;4.64;57.10;94799.50;5045396;28;20045;-76
2022/12/23 07:09:17;;;;;;;118.60;66.60;;;;;;;4.66;57.08;94789.78;5045510;28;20427;-76
2022/12/23 07:11:43;;;;;;;122.93;64.28;;;;;;;4.61;56.86;94786.72;5045657;28;20025;-76
2022/12/23 07:14:08;;;;;;;115.15;65.20;;;;;;;4.67;56.79;94790.56;5044851;28;20013;-75
2022/12/23 07:16:34;;;;;;;119.45;66.90;;;;;;;4.64;56.73;94797.56;5028424;28;20025;-76
2022/12/23 07:18:59;;;;;;;125.35;65.82;;;;;;;4.66;56.73;94797.94;5043777;28;20021;-76
2022/12/23 07:21:24;;;;;;;125.55;66.82;;;;;;;4.73;56.70;94799.84;5045159;28;20028;-75
2022/12/23 07:23:50;;;;;;;118.00;65.38;;;;;;;4.77;56.37;94793.19;5044741;28;20036;-77
2022/12/23 07:26:15;;;;;;;120.70;67.25;;;;;;;4.90;56.19;94798.91;5045123;28;20028;-76
2022/12/23 07:28:43;;;;;;;102.85;59.15;;;;;;;4.91;55.21;94799.66;5043777;28;20032;-76
2022/12/23 07:31:09;;;;;;;89.07;52.75;;;;;;;5.00;54.71;94797.25;5028170;28;20111;-77
2022/12/23 07:33:34;;;;;;;92.30;51.95;;;;;;;5.12;54.27;94795.97;5027703;28;20838;-76
2022/12/23 07:36:00;;;;;;;95.93;50.13;;;;;;;5.25;53.79;94803.22;5045826;28;20395;-76
2022/12/23 07:38:25;;;;;;;81.18;48.63;;;;;;;5.39;53.63;94804.25;5046318;28;20395;-76
2022/12/23 07:40:50;;;;;;;86.82;50.50;;;;;;;5.57;52.98;94813.78;5043826;28;20021;-77
2022/12/23 07:43:16;;;;;;;85.30;50.95;;;;;;;5.76;52.69;94808.88;5028844;28;20063;-76
2022/12/23 07:45:41;;;;;;;90.40;54.25;;;;;;;5.93;51.87;94801.69;5043737;28;20025;-77
2022/12/23 07:48:07;;;;;;;89.57;53.03;;;;;;;6.14;51.70;94812.34;5046425;28;20199;-76
2022/12/23 07:50:32;;;;;;;95.72;52.53;;;;;;;6.38;51.05;94813.94;5043870;28;20029;-76
2022/12/23 07:52:58;;;;;;;95.38;51.60;;;;;;;6.70;50.20;94811.88;5027532;28;20040;-75
2022/12/23 07:55:23;;;;;;;87.60;53.50;;;;;;;7.06;49.11;94820.28;5045698;28;20021;-77
2022/12/23 07:57:49;;;;;;;98.65;54.75;;;;;;;7.40;48.28;94817.34;5026997;28;20028;-76
2022/12/23 08:00:15;;;;;;;87.38;53.85;;;;;;;7.87;47.32;94817.22;5028163;28;20500;-77
2022/12/23 08:02:41;;;;;;;94.88;55.40;;;;;;;9.05;44.69;94818.09;5009859;28;20029;-78
2022/12/23 08:05:06;;;;;;;97.68;57.05;;;;;;;11.01;41.11;94817.25;5044425;28;20025;-76
2022/12/23 08:07:32;;;;;;;87.90;55.28;;;;;;;12.81;37.48;94816.75;5028867;28;20582;-77
2022/12/23 08:09:57;;;;;;;89.55;56.40;;;;;;;14.39;34.52;94813.66;5049124;28;20036;-76
2022/12/23 08:12:23;;;;;;;87.45;57.85;;;;;;;15.86;31.70;94817.28;5048916;28;20047;-77
2022/12/23 08:14:51;;;;;;;92.40;58.65;;;;;;;16.96;30.14;94820.97;5048768;28;20024;-77
2022/12/23 08:17:17;;;;;;;89.90;58.38;;;;;;;18.29;28.33;94826.78;5049491;28;20033;-77
2022/12/23 08:19:42;;;;;;;86.13;59.63;;;;;;;19.71;26.17;94829.44;5029932;28;20392;-76
2022/12/23 08:22:08;;;;;;;81.43;59.22;;;;;;;20.74;24.75;94832.81;5049668;28;20476;-75
2022/12/23 08:24:33;;;;;;;97.68;60.03;;;;;;;21.85;23.53;94840.38;5048044;28;20482;-76
2022/12/23 08:26:58;;;;;;;80.45;60.10;;;;;;;22.71;21.98;94840.25;5047833;28;20430;-76
2022/12/23 08:29:24;;;;;;;83.28;61.70;;;;;;;23.62;21.25;94829.84;5047353;28;20480;-75
2022/12/23 08:31:50;;;;;;;77.38;58.50;;;;;;;24.14;20.20;94830.78;5063855;28;20499;-78
2022/12/23 08:34:16;;;;;;;79.70;62.75;;;;;;;24.86;19.79;94829.84;5051091;28;20108;-78
2022/12/23 08:36:41;;;;;;;84.13;63.28;;;;;;;25.54;19.06;94837.22;5029875;28;20430;-75
2022/12/23 08:39:08;;;;;;;80.68;65.65;;;;;;;26.16;18.40;94836.84;5047879;28;20029;-76
2022/12/23 08:41:44;;;;;;;84.25;65.43;;;;;;;26.84;17.79;94836.97;5046420;28;20067;-76
2022/12/23 08:44:09;;;;;;;84.90;70.38;;;;;;;27.51;17.20;94834.59;5031193;28;20029;-75
2022/12/23 08:46:35;;;;;;;91.47;72.10;;;;;;;27.86;16.95;94835.25;5032897;28;20071;-82
2022/12/23 08:49:00;;;;;;;95.00;74.20;;;;;;;27.93;16.50;94835.34;5049174;28;20433;-77
2022/12/23 08:51:26;;;;;;;94.82;76.57;;;;;;;26.50;17.53;94828.50;5030884;28;20029;-78
2022/12/23 08:53:53;;;;;;;102.10;78.90;;;;;;;26.39;17.90;94826.63;5029744;28;20426;-78
2022/12/23 08:56:20;;;;;;;104.47;79.95;;;;;;;26.18;17.97;94823.72;5048889;28;20522;-78
2022/12/23 08:58:47;;;;;;;97.85;79.30;;;;;;;24.65;18.82;94812.00;5045998;28;20060;-76
2022/12/23 09:01:13;;;;;;;100.60;81.45;;;;;;;23.68;19.61;94824.16;5031020;28;20029;-75
2022/12/23 09:03:39;;;;;;;109.30;80.15;;;;;;;22.65;20.93;94817.13;5029546;28;20052;-76
2022/12/23 09:06:13;;;;;;;104.82;78.28;;;;;;;22.36;21.39;94815.72;5031651;28;20049;-75
2022/12/23 09:08:38;;;;;;;105.05;77.90;;;;;;;21.59;21.94;94820.34;5048523;28;20428;-76
2022/12/23 09:11:04;;;;;;;108.05;76.75;;;;;;;21.95;21.81;94816.41;5047254;28;20467;-75
2022/12/23 09:13:30;;;;;;;97.35;72.45;;;;;;;21.66;22.06;94814.22;5047983;28;20029;-76
2022/12/23 09:15:55;;;;;;;99.53;72.97;;;;;;;22.33;21.09;94816.03;5045730;28;20029;-76
2022/12/23 09:18:21;;;;;;;92.90;72.43;;;;;;;21.80;21.56;94818.78;5048352;28;20017;-74
2022/12/23 09:20:46;;;;;;;101.03;73.70;;;;;;;20.58;22.86;94812.75;5045565;28;20029;-75
2022/12/23 09:23:12;;;;;;;101.88;74.57;;;;;;;19.65;24.16;94815.47;5048111;28;20025;-75
2022/12/23 09:25:37;;;;;;;107.57;77.72;;;;;;;18.84;25.29;94816.69;5029430;28;20479;-74
2022/12/23 09:28:03;;;;;;;113.68;80.97;;;;;;;18.11;26.14;94818.75;5047389;28;20028;-75
2022/12/23 09:30:29;;;;;;;103.53;78.10;;;;;;;17.36;27.27;94816.78;5048140;28;20024;-75
2022/12/23 09:32:54;;;;;;;113.47;79.18;;;;;;;16.68;28.22;94810.16;5045322;28;20095;-76
2022/12/23 09:35:19;;;;;;;110.03;75.75;;;;;;;16.06;29.13;94815.91;5046808;28;20094;-75
2022/12/23 09:37:45;;;;;;;110.25;76.78;;;;;;;15.45;30.04;94816.16;5044970;28;20029;-75
2022/12/23 09:40:14;;;;;;;112.03;75.00;;;;;;;14.88;31.12;94813.41;5046448;28;20028;-78
2022/12/23 09:43:07;;;;;;;115.75;73.07;;;;;;;14.38;31.80;94801.84;5045603;28;20053;-73
2022/12/23 09:45:43;;;;;;;117.97;74.40;;;;;;;13.85;32.78;94805.00;5046726;28;20064;-76
2022/12/23 09:48:13;;;;;;;115.00;73.75;;;;;;;13.47;33.81;94805.44;5046448;28;20463;-75
2022/12/23 09:50:39;;;;;;;114.25;70.43;;;;;;;13.08;34.50;94804.28;5028297;28;20036;-75
2022/12/23 09:53:11;;;;;;;106.47;65.72;;;;;;;12.72;35.47;94798.19;5029986;28;20025;-75
2022/12/23 09:55:59;;;;;;;98.10;65.88;;;;;;;12.39;35.84;94805.41;5046639;28;20024;-74
2022/12/23 09:58:41;;;;;;;105.85;67.80;;;;;;;12.03;36.67;94800.44;5045063;28;20600;-76
2022/12/23 10:01:31;;;;;;;114.40;65.80;;;;;;;11.78;37.29;94798.56;5029899;28;20079;-76
2022/12/23 10:04:21;;;;;;;104.20;62.65;;;;;;;11.55;38.06;94792.25;5044241;28;20061;-75
2022/12/23 10:06:55;;;;;;;96.50;61.25;;;;;;;11.42;38.35;94797.03;5045016;28;20259;-75
2022/12/23 10:09:20;;;;;;;97.55;60.72;;;;;;;11.36;38.70;94802.34;5045753;28;20029;-75
2022/12/23 10:11:47;;;;;;;95.15;62.83;;;;;;;11.59;38.17;94784.66;5011326;28;20519;-75
2022/12/23 10:14:24;;;;;;;98.50;61.63;;;;;;;11.53;38.26;94774.66;5046236;28;20109;-74
2022/12/23 10:17:01;;;;;;;97.43;63.33;;;;;;;11.39;38.53;94767.66;5027696;28;20049;-75
2022/12/23 10:19:43;;;;;;;100.88;64.10;;;;;;;11.35;39.09;94781.53;5029273;28;20028;-75
2022/12/23 10:22:11;;;;;;;94.50;63.53;;;;;;;11.33;39.68;94781.22;5028747;28;20025;-75
2022/12/23 10:24:39;;;;;;;103.55;65.32;;;;;;;11.60;39.07;94775.16;5028110;28;20033;-74
2022/12/23 10:27:14;;;;;;;101.28;66.20;;;;;;;12.11;38.16;94783.19;5029646;28;20060;-75
2022/12/23 10:29:39;;;;;;;105.18;64.68;;;;;;;12.14;38.17;94778.75;5043361;28;20028;-75
2022/12/23 10:32:23;;;;;;;100.43;63.70;;;;;;;12.26;37.95;94777.91;5028381;28;20029;-75
2022/12/23 10:35:06;;;;;;;100.15;64.10;;;;;;;12.56;37.33;94770.06;5046101;28;20335;-74
2022/12/23 10:37:49;;;;;;;98.70;63.58;;;;;;;13.84;34.74;94764.78;5044368;28;20476;-75
2022/12/23 10:40:22;;;;;;;100.30;61.53;;;;;;;15.27;32.84;94764.44;5045788;28;20021;-74
2022/12/23 10:43:09;;;;;;;91.55;61.67;;;;;;;17.10;29.85;94758.34;5043923;28;20144;-74
2022/12/23 10:46:16;;;;;;;96.00;59.58;;;;;;;19.66;26.61;94761.22;5029344;28;20040;-74
2022/12/23 10:48:47;;;;;;;87.88;57.47;;;;;;;22.72;22.82;94762.56;4993555;28;20029;-76
2022/12/23 10:51:18;;;;;;;95.00;56.55;;;;;;;23.31;22.04;94761.03;4986922;28;20433;-74
2022/12/23 10:53:51;;;;;;;81.20;57.38;;;;;;;22.31;22.58;94760.56;5000885;28;20073;-75
2022/12/23 10:56:17;;;;;;;79.72;58.88;;;;;;;21.90;23.32;94752.84;5044825;28;20040;-76
2022/12/23 10:58:44;;;;;;;77.57;55.47;;;;;;;21.34;23.97;94747.47;5045290;28;20422;-75
2022/12/23 11:01:11;;;;;;;79.25;55.60;;;;;;;20.72;24.29;94755.13;5012069;28;20179;-75
2022/12/23 11:03:43;;;;;;;77.32;56.40;;;;;;;20.11;25.04;94753.75;5043564;28;20392;-75
2022/12/23 11:06:08;;;;;;;79.82;55.92;;;;;;;19.52;25.85;94751.00;5028859;28;20056;-75
2022/12/23 11:08:34;;;;;;;80.28;54.83;;;;;;;18.97;26.51;94747.41;5027470;28;20036;-76
2022/12/23 11:11:02;;;;;;;85.78;55.78;;;;;;;18.49;27.31;94745.25;5028172;28;20025;-73
2022/12/23 11:13:31;;;;;;;80.97;53.83;;;;;;;18.09;27.70;94743.38;5044389;28;20040;-76
2022/12/23 11:16:13;;;;;;;77.55;54.80;;;;;;;17.48;28.86;94746.97;5045456;28;20036;-75
2022/12/23 11:18:58;;;;;;;73.53;51.35;;;;;;;16.96;29.69;94751.56;5029640;28;20032;-76
2022/12/23 11:21:24;;;;;;;86.93;55.30;;;;;;;16.21;30.67;94744.56;5030595;28;20027;-75
2022/12/23 11:24:09;;;;;;;89.65;57.40;;;;;;;15.60;31.69;94752.50;5012185;28;20029;-74
2022/12/23 11:26:34;;;;;;;89.78;58.85;;;;;;;15.00;32.65;94757.06;5045817;28;20051;-74
2022/12/23 11:29:24;;;;;;;92.32;56.20;;;;;;;14.54;33.61;94751.72;5043867;28;20491;-75
2022/12/23 11:31:50;;;;;;;80.97;50.42;;;;;;;14.07;34.68;94744.78;5034257;28;20079;-75
2022/12/23 11:34:17;;;;;;;76.35;49.85;;;;;;;13.79;35.17;94755.13;5043773;28;20207;-76
2022/12/23 11:36:43;;;;;;;69.03;46.95;;;;;;;13.23;36.25;94750.03;5011990;28;20036;-75
2022/12/23 11:39:08;;;;;;;72.75;48.70;;;;;;;12.94;37.05;94751.19;5010774;28;20025;-76
2022/12/23 11:41:43;;;;;;;71.40;48.22;;;;;;;12.57;37.75;94755.84;5047866;28;20036;-74
2022/12/23 11:44:34;;;;;;;71.03;47.42;;;;;;;12.41;38.81;94748.59;5048375;28;20080;-75
2022/12/23 11:47:21;;;;;;;62.58;42.35;;;;;;;12.17;39.60;94747.56;5048622;28;20083;-76
2022/12/23 11:49:57;;;;;;;71.60;44.22;;;;;;;11.85;40.42;94738.50;5050385;28;20051;-76
2022/12/23 11:52:32;;;;;;;66.95;44.10;;;;;;;11.64;41.36;94730.97;5033061;28;20453;-75
2022/12/23 11:54:59;;;;;;;64.75;39.97;;;;;;;11.43;41.63;94730.53;5047873;28;20029;-76
2022/12/23 11:57:39;;;;;;;61.50;37.70;;;;;;;11.31;42.79;94727.84;5048663;28;20534;-77